createdAt,value
2018-12-04T00:00:28.153Z,99.99
2018-12-04T00:01:28.143Z,99.99
2018-12-04T00:02:28.135Z,99.99
2018-12-04T00:03:28.119Z,99.99
2018-12-04T00:04:28.146Z,99.99
2018-12-04T00:05:28.118Z,99.99
2018-12-04T00:06:28.087Z,99.99
2018-12-04T00:07:28.102Z,99.99
2018-12-04T00:08:28.112Z,99.99
2018-12-04T00:09:28.068Z,99.99
2018-12-04T00:10:28.092Z,99.99
2018-12-04T00:11:28.067Z,99.99
2018-12-04T00:12:28.024Z,99.99
2018-12-04T00:13:28.029Z,99.99
2018-12-04T00:14:28.067Z,99.99
2018-12-04T00:15:28.017Z,99.99
2018-12-04T00:16:28.018Z,99.99
2018-12-04T00:17:28.014Z,99.99
2018-12-04T00:18:27.977Z,99.99
2018-12-04T00:19:27.997Z,99.99
2018-12-04T00:20:28.215Z,99.99
2018-12-04T00:21:27.962Z,99.99
2018-12-04T00:22:27.946Z,99.99
2018-12-04T00:23:27.942Z,99.99
2018-12-04T00:24:27.948Z,99.99
2018-12-04T00:25:27.917Z,99.99
2018-12-04T00:26:27.908Z,99.99
2018-12-04T00:27:27.934Z,99.99
2018-12-04T00:28:27.887Z,99.99
2018-12-04T00:29:27.888Z,99.99
2018-12-04T00:30:27.895Z,99.99
2018-12-04T00:31:27.878Z,99.99
2018-12-04T00:32:27.865Z,99.99
2018-12-04T00:33:27.856Z,99.99
2018-12-04T00:34:27.861Z,99.99
2018-12-04T00:35:27.833Z,99.99
2018-12-04T00:36:28.091Z,99.99
2018-12-04T00:37:27.806Z,0.00
2018-12-04T00:38:27.824Z,0.00
2018-12-04T00:39:27.794Z,0.00
2018-12-04T00:40:27.811Z,0.00
2018-12-04T00:41:27.769Z,0.00
2018-12-04T00:42:27.765Z,0.00
2018-12-04T00:43:27.806Z,0.00
2018-12-04T00:44:27.781Z,0.00
2018-12-04T00:45:27.728Z,99.99
2018-12-04T00:46:27.764Z,99.99
2018-12-04T00:47:27.722Z,99.99
2018-12-04T00:48:27.717Z,99.99
2018-12-04T00:49:27.717Z,99.99
2018-12-04T00:50:27.705Z,99.99
2018-12-04T00:51:27.673Z,99.99
2018-12-04T00:52:27.670Z,99.99
2018-12-04T00:53:27.689Z,99.99
2018-12-04T00:54:27.682Z,99.99
2018-12-04T00:55:27.711Z,99.99
2018-12-04T00:56:27.650Z,99.99
2018-12-04T00:57:27.644Z,99.99
2018-12-04T00:58:27.613Z,99.99
2018-12-04T00:59:27.633Z,99.99
2018-12-04T01:00:27.626Z,99.99
2018-12-04T01:01:27.613Z,99.99
2018-12-04T01:02:27.586Z,99.99
2018-12-04T01:03:27.581Z,99.99
2018-12-04T01:04:27.588Z,99.99
2018-12-04T01:05:27.568Z,99.99
2018-12-04T01:06:27.597Z,99.99
2018-12-04T01:07:27.539Z,99.99
2018-12-04T01:08:27.560Z,99.99
2018-12-04T01:09:27.543Z,99.99
2018-12-04T01:10:27.501Z,99.99
2018-12-04T01:11:27.516Z,99.99
2018-12-04T01:12:27.516Z,99.99
2018-12-04T01:13:27.503Z,99.99
2018-12-04T01:14:27.475Z,99.99
2018-12-04T01:15:27.476Z,99.99
2018-12-04T01:16:27.476Z,99.99
2018-12-04T01:17:27.445Z,99.99
2018-12-04T01:18:27.449Z,99.99
2018-12-04T01:19:27.426Z,99.99
2018-12-04T01:20:27.411Z,99.99
2018-12-04T01:21:27.415Z,99.99
2018-12-04T01:22:27.402Z,99.99
2018-12-04T01:23:27.384Z,0.00
2018-12-04T01:24:27.429Z,0.00
2018-12-04T01:25:27.390Z,0.00
2018-12-04T01:26:27.422Z,0.00
2018-12-04T01:27:27.344Z,0.00
2018-12-04T01:28:27.346Z,0.00
2018-12-04T01:29:27.340Z,0.00
2018-12-04T01:30:27.308Z,0.00
2018-12-04T01:31:27.322Z,0.00
2018-12-04T01:32:27.313Z,0.00
2018-12-04T01:33:27.303Z,0.00
2018-12-04T01:34:27.291Z,0.00
2018-12-04T01:35:27.275Z,0.00
2018-12-04T01:36:27.285Z,0.00
2018-12-04T01:37:27.283Z,0.00
2018-12-04T01:38:27.227Z,0.00
2018-12-04T01:39:27.297Z,0.00
2018-12-04T01:40:27.220Z,0.00
2018-12-04T01:41:27.224Z,0.00
2018-12-04T01:42:27.216Z,0.00
2018-12-04T01:43:27.211Z,0.00
2018-12-04T01:44:27.476Z,0.00
2018-12-04T01:45:27.199Z,0.00
2018-12-04T01:46:27.170Z,0.00
2018-12-04T01:47:27.147Z,0.00
2018-12-04T01:48:27.142Z,0.00
2018-12-04T01:49:27.157Z,0.00
2018-12-04T01:50:27.120Z,0.00
2018-12-04T01:51:27.132Z,0.00
2018-12-04T01:52:27.132Z,99.99
2018-12-04T01:53:27.122Z,99.99
2018-12-04T01:54:27.121Z,99.99
2018-12-04T01:55:27.147Z,99.99
2018-12-04T01:56:27.075Z,99.99
2018-12-04T01:57:27.086Z,99.99
2018-12-04T01:58:27.063Z,99.99
2018-12-04T01:59:27.043Z,99.99
2018-12-04T02:00:27.045Z,99.99
2018-12-04T02:01:27.053Z,99.99
2018-12-04T02:02:27.071Z,99.99
2018-12-04T02:03:27.036Z,99.99
2018-12-04T02:04:26.989Z,99.99
2018-12-04T02:05:26.991Z,99.99
2018-12-04T02:06:27.027Z,99.99
2018-12-04T02:07:26.991Z,99.99
2018-12-04T02:08:26.962Z,99.99
2018-12-04T02:09:26.955Z,99.99
2018-12-04T02:10:26.983Z,99.99
2018-12-04T02:11:27.209Z,99.99
2018-12-04T02:12:26.929Z,99.99
2018-12-04T02:13:26.950Z,99.99
2018-12-04T02:14:26.927Z,99.99
2018-12-04T02:15:26.911Z,99.99
2018-12-04T02:16:26.908Z,99.99
2018-12-04T02:17:26.896Z,99.99
2018-12-04T02:18:26.882Z,99.99
2018-12-04T02:19:26.919Z,99.99
2018-12-04T02:20:26.861Z,99.99
2018-12-04T02:21:26.840Z,99.99
2018-12-04T02:22:27.133Z,99.99
2018-12-04T02:23:26.807Z,99.99
2018-12-04T02:24:26.867Z,99.99
2018-12-04T02:25:26.826Z,99.99
2018-12-04T02:26:26.796Z,99.99
2018-12-04T02:27:26.797Z,99.99
2018-12-04T02:28:26.775Z,99.99
2018-12-04T02:29:26.761Z,99.99
2018-12-04T02:30:26.770Z,99.99
2018-12-04T02:31:26.747Z,99.99
2018-12-04T02:32:26.725Z,99.99
2018-12-04T02:33:26.722Z,99.99
2018-12-04T02:34:26.737Z,99.99
2018-12-04T02:35:26.735Z,99.99
2018-12-04T02:36:26.739Z,99.99
2018-12-04T02:37:26.707Z,99.99
2018-12-04T02:38:26.687Z,99.99
2018-12-04T02:39:26.672Z,99.99
2018-12-04T02:40:26.688Z,99.99
2018-12-04T02:41:26.672Z,99.99
2018-12-04T02:42:26.656Z,99.99
2018-12-04T02:43:26.658Z,99.99
2018-12-04T02:44:26.873Z,99.99
2018-12-04T02:45:26.630Z,99.99
2018-12-04T02:46:26.673Z,99.99
2018-12-04T02:47:26.619Z,99.99
2018-12-04T02:48:26.589Z,99.99
2018-12-04T02:49:26.900Z,99.99
2018-12-04T02:50:26.587Z,99.99
2018-12-04T02:51:26.585Z,99.99
2018-12-04T02:52:26.563Z,99.99
2018-12-04T02:53:26.578Z,99.99
2018-12-04T02:54:26.542Z,99.99
2018-12-04T02:55:26.532Z,99.99
2018-12-04T02:56:26.540Z,99.99
2018-12-04T02:57:26.529Z,99.99
2018-12-04T02:58:26.499Z,99.99
2018-12-04T02:59:26.819Z,99.99
2018-12-04T03:00:26.519Z,99.99
2018-12-04T03:01:26.486Z,99.99
2018-12-04T03:02:26.500Z,99.99
2018-12-04T03:03:26.465Z,99.99
2018-12-04T03:04:26.459Z,99.99
2018-12-04T03:05:26.721Z,99.99
2018-12-04T03:06:26.435Z,99.99
2018-12-04T03:07:26.422Z,99.99
2018-12-04T03:08:26.456Z,99.99
2018-12-04T03:09:26.414Z,99.99
2018-12-04T03:10:26.709Z,99.99
2018-12-04T03:11:26.374Z,99.99
2018-12-04T03:12:26.371Z,99.99
2018-12-04T03:13:26.399Z,99.99
2018-12-04T03:14:26.348Z,99.99
2018-12-04T03:15:26.349Z,99.99
2018-12-04T03:16:26.343Z,99.99
2018-12-04T03:17:26.346Z,99.99
2018-12-04T03:18:26.332Z,99.99
2018-12-04T03:19:26.325Z,99.99
2018-12-04T03:20:26.296Z,99.99
2018-12-04T03:21:26.308Z,99.99
2018-12-04T03:22:26.291Z,99.99
2018-12-04T03:23:26.288Z,99.99
2018-12-04T03:24:26.279Z,99.99
2018-12-04T03:25:26.263Z,99.99
2018-12-04T03:26:26.260Z,99.99
2018-12-04T03:27:26.234Z,99.99
2018-12-04T03:28:26.213Z,99.99
2018-12-04T03:29:26.216Z,99.99
2018-12-04T03:30:26.219Z,99.99
2018-12-04T03:31:26.213Z,99.99
2018-12-04T03:32:26.195Z,99.99
2018-12-04T03:33:26.184Z,99.99
2018-12-04T03:34:26.195Z,99.99
2018-12-04T03:35:26.165Z,99.99
2018-12-04T03:36:26.175Z,99.99
2018-12-04T03:37:26.152Z,99.99
2018-12-04T03:38:26.142Z,99.99
2018-12-04T03:39:26.108Z,99.99
2018-12-04T03:40:26.119Z,99.99
2018-12-04T03:41:26.147Z,99.99
2018-12-04T03:42:26.111Z,99.99
2018-12-04T03:43:26.094Z,99.99
2018-12-04T03:44:26.067Z,99.99
2018-12-04T03:45:26.079Z,99.99
2018-12-04T03:46:26.111Z,99.99
2018-12-04T03:47:26.062Z,99.99
2018-12-04T03:48:26.017Z,99.99
2018-12-04T03:49:26.025Z,99.99
2018-12-04T03:50:26.031Z,99.99
2018-12-04T03:51:26.007Z,99.99
2018-12-04T03:52:26.007Z,99.99
2018-12-04T03:53:26.270Z,99.99
2018-12-04T03:54:25.997Z,99.99
2018-12-04T03:55:25.976Z,99.99
2018-12-04T03:56:25.954Z,99.99
2018-12-04T03:57:25.959Z,99.99
2018-12-04T03:58:25.955Z,99.99
2018-12-04T03:59:25.951Z,99.99
2018-12-04T04:00:25.954Z,99.99
2018-12-04T04:01:25.901Z,99.99
2018-12-04T04:02:25.964Z,99.99
2018-12-04T04:03:25.908Z,99.99
2018-12-04T04:04:25.943Z,99.99
2018-12-04T04:05:25.891Z,99.99
2018-12-04T04:06:25.882Z,99.99
2018-12-04T04:07:25.851Z,99.99
2018-12-04T04:08:25.877Z,99.99
2018-12-04T04:09:25.849Z,99.99
2018-12-04T04:10:25.846Z,99.99
2018-12-04T04:11:25.849Z,99.99
2018-12-04T04:12:25.823Z,99.99
2018-12-04T04:13:25.815Z,99.99
2018-12-04T04:14:26.019Z,99.99
2018-12-04T04:15:25.834Z,99.99
2018-12-04T04:16:25.779Z,99.99
2018-12-04T04:17:25.774Z,99.99
2018-12-04T04:18:25.762Z,99.99
2018-12-04T04:19:25.759Z,99.99
2018-12-04T04:20:25.781Z,99.99
2018-12-04T04:21:25.770Z,99.99
2018-12-04T04:22:25.693Z,99.99
2018-12-04T04:23:25.768Z,99.99
2018-12-04T04:24:25.684Z,99.99
2018-12-04T04:25:25.706Z,99.99
2018-12-04T04:26:25.674Z,99.99
2018-12-04T04:27:25.684Z,99.99
2018-12-04T04:28:25.677Z,99.99
2018-12-04T04:29:25.712Z,99.99
2018-12-04T04:30:25.645Z,99.99
2018-12-04T04:31:25.648Z,99.99
2018-12-04T04:32:25.612Z,99.99
2018-12-04T04:33:25.614Z,99.99
2018-12-04T04:34:25.598Z,99.99
2018-12-04T04:35:25.592Z,99.99
2018-12-04T04:36:25.598Z,99.99
2018-12-04T04:37:25.580Z,99.99
2018-12-04T04:38:25.570Z,99.99
2018-12-04T04:39:25.552Z,99.99
2018-12-04T04:40:25.521Z,99.99
2018-12-04T04:41:25.563Z,99.99
2018-12-04T04:42:25.512Z,99.99
2018-12-04T04:43:25.505Z,99.99
2018-12-04T04:44:25.501Z,99.99
2018-12-04T04:45:25.531Z,99.99
2018-12-04T04:46:25.501Z,99.99
2018-12-04T04:47:25.478Z,99.99
2018-12-04T04:48:25.496Z,99.99
2018-12-04T04:49:25.460Z,99.99
2018-12-04T04:50:25.517Z,99.99
2018-12-04T04:51:25.473Z,99.99
2018-12-04T04:52:25.427Z,99.99
2018-12-04T04:53:25.425Z,99.99
2018-12-04T04:54:25.413Z,99.99
2018-12-04T04:55:25.397Z,99.99
2018-12-04T04:56:25.388Z,99.99
2018-12-04T04:57:25.397Z,99.99
2018-12-04T04:58:25.387Z,99.99
2018-12-04T04:59:25.365Z,99.99
2018-12-04T05:00:25.353Z,99.99
2018-12-04T05:01:25.360Z,99.99
2018-12-04T05:02:25.350Z,99.99
2018-12-04T05:03:25.321Z,99.99
2018-12-04T05:04:25.312Z,99.99
2018-12-04T05:05:25.321Z,99.99
2018-12-04T05:06:25.307Z,99.99
2018-12-04T05:07:25.300Z,99.99
2018-12-04T05:08:25.296Z,99.99
2018-12-04T05:09:25.257Z,99.99
2018-12-04T05:10:25.243Z,99.99
2018-12-04T05:11:25.264Z,99.99
2018-12-04T05:12:25.212Z,99.99
2018-12-04T05:13:25.208Z,99.99
2018-12-04T05:14:25.229Z,99.99
2018-12-04T05:15:25.212Z,99.99
2018-12-04T05:16:25.203Z,99.99
2018-12-04T05:17:25.174Z,99.99
2018-12-04T05:18:25.167Z,99.99
2018-12-04T05:19:25.170Z,99.99
2018-12-04T05:20:25.218Z,99.99
2018-12-04T05:21:25.166Z,99.99
2018-12-04T05:22:25.140Z,99.99
2018-12-04T05:23:25.137Z,99.99
2018-12-04T05:24:25.115Z,99.99
2018-12-04T05:25:25.115Z,99.99
2018-12-04T05:26:25.094Z,99.99
2018-12-04T05:27:25.087Z,99.99
2018-12-04T05:28:25.101Z,99.99
2018-12-04T05:29:25.080Z,99.99
2018-12-04T05:30:25.059Z,99.99
2018-12-04T05:31:25.057Z,99.99
2018-12-04T05:32:25.051Z,99.99
2018-12-04T05:33:25.051Z,99.99
2018-12-04T05:34:25.037Z,99.99
2018-12-04T05:35:25.022Z,99.99
2018-12-04T05:36:25.012Z,99.99
2018-12-04T05:37:24.995Z,99.99
2018-12-04T05:38:24.996Z,99.99
2018-12-04T05:39:24.991Z,99.99
2018-12-04T05:40:24.958Z,99.99
2018-12-04T05:41:24.953Z,99.99
2018-12-04T05:42:24.953Z,99.99
2018-12-04T05:43:24.956Z,99.99
2018-12-04T05:44:24.953Z,99.99
2018-12-04T05:45:24.925Z,99.99
2018-12-04T05:46:24.905Z,99.99
2018-12-04T05:47:25.203Z,99.99
2018-12-04T05:48:24.895Z,99.99
2018-12-04T05:49:24.956Z,99.99
2018-12-04T05:50:24.880Z,99.99
2018-12-04T05:51:24.878Z,99.99
2018-12-04T05:52:24.854Z,99.99
2018-12-04T05:53:24.834Z,99.99
2018-12-04T05:54:24.883Z,99.99
2018-12-04T05:55:24.814Z,99.99
2018-12-04T05:56:24.814Z,99.99
2018-12-04T05:57:24.819Z,99.99
2018-12-04T05:58:24.807Z,99.99
2018-12-04T05:59:24.792Z,99.99
2018-12-04T06:00:24.789Z,99.99
2018-12-04T06:01:24.809Z,99.99
2018-12-04T06:02:24.781Z,99.99
2018-12-04T06:03:24.747Z,99.99
2018-12-04T06:04:24.780Z,99.99
2018-12-04T06:05:24.730Z,99.99
2018-12-04T06:06:24.717Z,99.99
2018-12-04T06:07:24.726Z,99.99
2018-12-04T06:08:24.955Z,99.99
2018-12-04T06:09:24.704Z,99.99
2018-12-04T06:10:24.656Z,99.99
2018-12-04T06:11:24.688Z,99.99
2018-12-04T06:12:24.672Z,99.99
2018-12-04T06:13:24.641Z,99.99
2018-12-04T06:14:24.684Z,99.99
2018-12-04T06:15:24.631Z,99.99
2018-12-04T06:16:24.620Z,99.99
2018-12-04T06:17:24.604Z,99.99
2018-12-04T06:18:24.615Z,99.99
2018-12-04T06:19:24.611Z,99.99
2018-12-04T06:20:24.592Z,99.99
2018-12-04T06:21:24.592Z,99.99
2018-12-04T06:22:24.542Z,99.99
2018-12-04T06:23:24.559Z,99.99
2018-12-04T06:26:10.406Z,99.99
2018-12-04T06:27:10.387Z,99.99
2018-12-04T06:28:10.371Z,99.99
2018-12-04T06:29:10.358Z,99.99
2018-12-04T06:30:10.355Z,99.99
2018-12-04T06:31:10.368Z,99.99
2018-12-04T06:32:10.326Z,99.99
2018-12-04T06:33:10.316Z,99.99
2018-12-04T06:34:10.338Z,99.99
2018-12-04T06:35:10.289Z,99.99
2018-12-04T06:36:10.334Z,99.99
2018-12-04T06:37:10.283Z,99.99
2018-12-04T06:38:10.315Z,99.99
2018-12-04T06:39:10.270Z,99.99
2018-12-04T06:40:10.297Z,99.99
2018-12-04T06:41:10.348Z,99.99
2018-12-04T06:42:10.221Z,99.99
2018-12-04T06:43:10.227Z,99.99
2018-12-04T06:44:10.227Z,99.99
2018-12-04T06:45:10.198Z,99.99
2018-12-04T06:46:10.199Z,99.99
2018-12-04T06:47:10.182Z,99.99
2018-12-04T06:48:10.168Z,99.99
2018-12-04T06:49:10.161Z,99.99
2018-12-04T06:50:10.147Z,99.99
2018-12-04T06:51:10.146Z,99.99
2018-12-04T06:52:10.172Z,99.99
2018-12-04T06:53:10.121Z,99.99
2018-12-04T06:54:10.097Z,99.99
2018-12-04T06:55:10.089Z,99.99
2018-12-04T06:56:10.127Z,99.99
2018-12-04T06:57:10.073Z,99.99
2018-12-04T06:58:10.074Z,99.99
2018-12-04T06:59:10.054Z,99.99
2018-12-04T07:00:10.039Z,99.99
2018-12-04T07:01:10.050Z,99.99
2018-12-04T07:02:10.036Z,99.99
2018-12-04T07:03:10.007Z,99.99
2018-12-04T07:04:09.993Z,99.99
2018-12-04T07:05:09.998Z,99.99
2018-12-04T07:06:09.990Z,99.99
2018-12-04T07:07:10.002Z,99.99
2018-12-04T07:08:09.967Z,99.99
2018-12-04T07:09:09.956Z,99.99
2018-12-04T07:10:09.973Z,99.99
2018-12-04T07:11:09.933Z,99.99
2018-12-04T07:12:09.986Z,99.99
2018-12-04T07:13:09.914Z,99.99
2018-12-04T07:14:09.905Z,99.99
2018-12-04T07:15:09.904Z,99.99
2018-12-04T07:16:09.926Z,99.99
2018-12-04T07:17:09.891Z,99.99
2018-12-04T07:18:09.898Z,99.99
2018-12-04T07:19:09.872Z,99.99
2018-12-04T07:20:09.907Z,99.99
2018-12-04T07:21:09.849Z,99.99
2018-12-04T07:22:09.827Z,99.99
2018-12-04T07:23:09.832Z,99.99
2018-12-04T07:24:09.794Z,99.99
2018-12-04T07:25:09.801Z,99.99
2018-12-04T07:26:09.781Z,99.99
2018-12-04T07:27:09.771Z,99.99
2018-12-04T07:28:09.765Z,99.99
2018-12-04T07:29:09.781Z,99.99
2018-12-04T07:30:09.780Z,99.99
2018-12-04T07:31:09.761Z,99.99
2018-12-04T07:32:09.749Z,99.99
2018-12-04T07:33:09.729Z,99.99
2018-12-04T07:34:09.745Z,99.99
2018-12-04T07:35:09.720Z,99.99
2018-12-04T07:36:09.693Z,99.99
2018-12-04T07:37:09.683Z,99.99
2018-12-04T07:38:09.677Z,99.99
2018-12-04T07:39:09.684Z,99.99
2018-12-04T07:40:09.686Z,99.99
2018-12-04T07:41:09.691Z,99.99
2018-12-04T07:42:09.656Z,99.99
2018-12-04T07:43:09.672Z,99.99
2018-12-04T07:44:09.629Z,99.99
2018-12-04T07:45:09.608Z,99.99
2018-12-04T07:46:09.600Z,99.99
2018-12-04T07:47:09.631Z,99.99
2018-12-04T07:48:09.593Z,99.99
2018-12-04T07:49:09.578Z,99.99
2018-12-04T07:50:09.565Z,99.99
2018-12-04T07:51:09.531Z,99.99
2018-12-04T07:52:09.543Z,99.99
2018-12-04T07:53:09.521Z,99.99
2018-12-04T07:54:09.561Z,99.99
2018-12-04T07:55:09.508Z,99.99
2018-12-04T07:56:09.486Z,99.99
2018-12-04T07:57:09.509Z,99.99
2018-12-04T07:58:09.493Z,99.99
2018-12-04T07:59:09.472Z,99.99
2018-12-04T08:00:09.520Z,99.99
2018-12-04T08:01:09.442Z,99.99
2018-12-04T08:02:09.434Z,99.99
2018-12-04T08:03:09.430Z,99.99
2018-12-04T08:04:09.440Z,99.99
2018-12-04T08:05:09.420Z,99.99
2018-12-04T08:06:09.406Z,99.99
2018-12-04T08:07:09.372Z,99.99
2018-12-04T08:08:09.390Z,99.99
2018-12-04T08:09:09.414Z,99.99
2018-12-04T08:10:09.360Z,99.99
2018-12-04T08:11:09.367Z,99.99
2018-12-04T08:12:09.353Z,99.99
2018-12-04T08:13:09.337Z,99.99
2018-12-04T08:14:09.298Z,99.99
2018-12-04T08:15:09.312Z,99.99
2018-12-04T08:16:09.313Z,99.99
2018-12-04T08:17:09.287Z,99.99
2018-12-04T08:18:09.260Z,99.99
2018-12-04T08:19:09.283Z,99.99
2018-12-04T08:20:09.244Z,99.99
2018-12-04T08:21:09.253Z,99.99
2018-12-04T08:22:09.239Z,99.99
2018-12-04T08:23:09.229Z,99.99
2018-12-04T08:24:09.210Z,99.99
2018-12-04T08:25:09.212Z,99.99
2018-12-04T08:26:09.240Z,99.99
2018-12-04T08:27:09.178Z,99.99
2018-12-04T08:28:09.189Z,99.99
2018-12-04T08:29:09.153Z,99.99
2018-12-04T08:30:09.166Z,99.99
2018-12-04T08:31:09.150Z,99.99
2018-12-04T08:32:09.957Z,99.99
2018-12-04T08:33:09.103Z,99.99
2018-12-04T08:34:09.107Z,99.99
2018-12-04T08:35:09.118Z,99.99
2018-12-04T08:36:09.111Z,99.99
2018-12-04T08:37:09.080Z,99.99
2018-12-04T08:38:09.059Z,99.99
2018-12-04T08:39:13.072Z,99.99
2018-12-04T08:40:09.104Z,99.99
2018-12-04T08:41:09.062Z,99.99
2018-12-04T08:42:09.020Z,99.99
2018-12-04T08:43:09.030Z,99.99
2018-12-04T08:44:09.060Z,99.99
2018-12-04T08:45:09.022Z,99.99
2018-12-04T08:46:09.022Z,99.99
2018-12-04T08:47:08.978Z,99.99
2018-12-04T08:48:08.990Z,99.99
2018-12-04T08:49:09.009Z,99.99
2018-12-04T08:50:08.999Z,99.99
2018-12-04T08:51:08.947Z,99.99
2018-12-04T08:52:08.937Z,99.99
2018-12-04T08:53:08.978Z,99.99
2018-12-04T08:54:08.920Z,99.99
2018-12-04T08:55:08.914Z,99.99
2018-12-04T08:56:08.907Z,99.99
2018-12-04T08:57:08.879Z,99.99
2018-12-04T08:58:08.858Z,99.99
2018-12-04T08:59:08.863Z,99.99
2018-12-04T09:00:08.872Z,99.99
2018-12-04T09:01:08.843Z,99.99
2018-12-04T09:02:08.839Z,99.99
2018-12-04T09:03:08.820Z,99.99
2018-12-04T09:04:08.813Z,99.99
2018-12-04T09:05:08.830Z,99.99
2018-12-04T09:06:08.809Z,99.99
2018-12-04T09:07:08.811Z,99.99
2018-12-04T09:08:09.467Z,99.99
2018-12-04T09:09:08.763Z,99.99
2018-12-04T09:10:08.748Z,99.99
2018-12-04T09:11:08.756Z,99.99
2018-12-04T09:12:08.751Z,99.99
2018-12-04T09:13:08.727Z,99.99
2018-12-04T09:14:08.738Z,99.99
2018-12-04T09:15:08.705Z,99.99
2018-12-04T09:16:08.693Z,99.99
2018-12-04T09:17:08.689Z,99.99
2018-12-04T09:18:08.710Z,99.99
2018-12-04T09:19:08.718Z,99.99
2018-12-04T09:20:08.681Z,99.99
2018-12-04T09:21:08.681Z,99.99
2018-12-04T09:22:08.640Z,99.99
2018-12-04T09:23:08.667Z,99.99
2018-12-04T09:24:08.621Z,99.99
2018-12-04T09:25:08.606Z,99.99
2018-12-04T09:26:08.598Z,99.99
2018-12-04T09:27:08.674Z,99.99
2018-12-04T09:28:08.573Z,99.99
2018-12-04T09:29:08.633Z,99.99
2018-12-04T09:30:08.570Z,99.99
2018-12-04T09:31:08.582Z,99.99
2018-12-04T09:32:08.532Z,99.99
2018-12-04T09:33:08.520Z,99.99
2018-12-04T09:34:08.532Z,99.99
2018-12-04T09:35:08.528Z,99.99
2018-12-04T09:36:08.550Z,99.99
2018-12-04T09:37:08.514Z,99.99
2018-12-04T09:38:08.508Z,99.99
2018-12-04T09:39:08.483Z,99.99
2018-12-04T09:40:08.459Z,99.99
2018-12-04T09:41:08.448Z,99.99
2018-12-04T09:42:08.444Z,99.99
2018-12-04T09:43:08.456Z,99.99
2018-12-04T09:44:08.450Z,99.99
2018-12-04T09:45:08.410Z,99.99
2018-12-04T09:46:08.468Z,99.99
2018-12-04T09:47:08.404Z,99.99
2018-12-04T09:48:08.383Z,99.99
2018-12-04T09:49:08.408Z,99.99
2018-12-04T09:50:08.394Z,99.99
2018-12-04T09:51:08.388Z,99.99
2018-12-04T09:52:08.373Z,99.99
2018-12-04T09:53:08.367Z,99.99
2018-12-04T09:54:08.343Z,99.99
2018-12-04T09:55:08.319Z,99.99
2018-12-04T09:56:08.336Z,99.99
2018-12-04T09:57:08.315Z,99.99
2018-12-04T09:58:08.308Z,99.99
2018-12-04T09:59:08.328Z,99.99
2018-12-04T10:00:08.272Z,99.99
2018-12-04T10:01:08.290Z,99.99
2018-12-04T10:02:08.269Z,99.99
2018-12-04T10:03:08.304Z,99.99
2018-12-04T10:04:08.244Z,99.99
2018-12-04T10:05:08.233Z,99.99
2018-12-04T10:06:08.239Z,99.99
2018-12-04T10:07:08.238Z,99.99
2018-12-04T10:08:08.216Z,99.99
2018-12-04T10:09:08.203Z,99.99
2018-12-04T10:10:08.209Z,99.99
2018-12-04T10:11:08.210Z,99.99
2018-12-04T10:12:08.188Z,99.99
2018-12-04T10:13:08.186Z,99.99
2018-12-04T10:14:08.163Z,99.99
2018-12-04T10:15:08.159Z,99.99
2018-12-04T10:16:08.193Z,99.99
2018-12-04T10:17:08.135Z,99.99
2018-12-04T10:18:08.127Z,99.99
2018-12-04T10:19:08.133Z,99.99
2018-12-04T10:20:08.108Z,99.99
2018-12-04T10:21:08.119Z,99.99
2018-12-04T10:22:08.084Z,99.99
2018-12-04T10:23:08.063Z,99.99
2018-12-04T10:24:08.092Z,99.99
2018-12-04T10:25:08.068Z,99.99
2018-12-04T10:26:08.052Z,99.99
2018-12-04T10:27:08.061Z,99.99
2018-12-04T10:28:08.061Z,99.99
2018-12-04T10:29:08.048Z,99.99
2018-12-04T10:30:08.022Z,99.99
2018-12-04T10:31:08.061Z,99.99
2018-12-04T10:32:08.003Z,99.99
2018-12-04T10:33:07.997Z,99.99
2018-12-04T10:34:07.992Z,99.99
2018-12-04T10:35:07.977Z,99.99
2018-12-04T10:36:08.957Z,99.99
2018-12-04T10:37:07.969Z,99.99
2018-12-04T10:38:07.928Z,99.99
2018-12-04T10:39:07.948Z,99.99
2018-12-04T10:40:07.916Z,99.99
2018-12-04T10:41:07.924Z,99.99
2018-12-04T10:42:07.932Z,99.99
2018-12-04T10:43:07.917Z,99.99
2018-12-04T10:44:08.182Z,99.99
2018-12-04T10:45:07.937Z,99.99
2018-12-04T10:46:07.887Z,99.99
2018-12-04T10:47:07.905Z,99.99
2018-12-04T10:48:07.851Z,99.99
2018-12-04T10:49:07.870Z,99.99
2018-12-04T10:50:07.879Z,99.99
2018-12-04T10:51:07.823Z,99.99
2018-12-04T10:52:07.815Z,99.99
2018-12-04T10:53:07.825Z,99.99
2018-12-04T10:54:07.793Z,99.99
2018-12-04T10:55:07.775Z,99.99
2018-12-04T10:56:07.792Z,99.99
2018-12-04T10:57:09.880Z,99.99
2018-12-04T10:58:07.772Z,99.99
2018-12-04T10:59:07.764Z,99.99
2018-12-04T11:00:07.753Z,99.99
2018-12-04T11:01:07.728Z,99.99
2018-12-04T11:02:07.731Z,99.99
2018-12-04T11:03:07.720Z,99.99
2018-12-04T11:04:07.711Z,99.99
2018-12-04T11:05:07.721Z,99.99
2018-12-04T11:06:07.709Z,99.99
2018-12-04T11:07:07.738Z,99.99
2018-12-04T11:08:07.687Z,99.99
2018-12-04T11:09:07.666Z,99.99
2018-12-04T11:10:07.692Z,99.99
2018-12-04T11:11:07.668Z,99.99
2018-12-04T11:12:12.204Z,99.99
2018-12-04T11:13:07.637Z,99.99
2018-12-04T11:14:07.644Z,99.99
2018-12-04T11:15:07.621Z,99.99
2018-12-04T11:16:07.617Z,99.99
2018-12-04T11:17:07.616Z,99.99
2018-12-04T11:18:07.598Z,99.99
2018-12-04T11:19:07.597Z,99.99
2018-12-04T11:20:07.592Z,99.99
2018-12-04T11:21:07.566Z,99.99
2018-12-04T11:22:07.561Z,99.99
2018-12-04T11:23:07.568Z,99.99
2018-12-04T11:24:07.528Z,99.99
2018-12-04T11:25:07.539Z,99.99
2018-12-04T11:26:07.536Z,99.99
2018-12-04T11:27:07.529Z,99.99
2018-12-04T11:28:07.519Z,99.99
2018-12-04T11:29:07.511Z,99.99
2018-12-04T11:30:07.502Z,99.99
2018-12-04T11:31:07.494Z,99.99
2018-12-04T11:32:07.493Z,99.99
2018-12-04T11:33:08.772Z,99.99
2018-12-04T11:34:07.513Z,99.99
2018-12-04T11:35:07.457Z,99.99
2018-12-04T11:36:07.463Z,99.99
2018-12-04T11:37:07.450Z,99.99
2018-12-04T11:38:07.466Z,99.99
2018-12-04T11:39:07.447Z,99.99
2018-12-04T11:40:07.427Z,99.99
2018-12-04T11:41:07.424Z,99.99
2018-12-04T11:42:07.420Z,99.99
2018-12-04T11:43:07.403Z,99.99
2018-12-04T11:44:07.409Z,99.99
2018-12-04T11:45:07.380Z,99.99
2018-12-04T11:46:07.384Z,99.99
2018-12-04T11:47:07.381Z,99.99
2018-12-04T11:48:07.381Z,99.99
2018-12-04T11:49:07.371Z,99.99
2018-12-04T11:50:07.407Z,99.99
2018-12-04T11:51:07.375Z,99.99
2018-12-04T11:52:07.350Z,99.99
2018-12-04T11:53:07.392Z,99.99
2018-12-04T11:54:07.325Z,99.99
2018-12-04T11:55:07.360Z,99.99
2018-12-04T11:56:07.362Z,99.99
2018-12-04T11:57:07.357Z,99.99
2018-12-04T11:58:07.295Z,99.99
2018-12-04T11:59:07.303Z,99.99
2018-12-04T12:00:07.317Z,99.99
2018-12-04T12:01:07.278Z,99.99
2018-12-04T12:02:10.824Z,99.99
2018-12-04T12:03:07.288Z,99.99
2018-12-04T12:04:07.282Z,99.99
2018-12-04T12:05:07.328Z,99.99
2018-12-04T12:06:07.260Z,99.99
2018-12-04T12:07:07.271Z,99.99
2018-12-04T12:08:07.240Z,99.99
2018-12-04T12:09:07.256Z,99.99
2018-12-04T12:10:07.224Z,99.99
2018-12-04T12:11:07.236Z,99.99
2018-12-04T12:12:07.227Z,99.99
2018-12-04T12:13:07.221Z,99.99
2018-12-04T12:14:07.225Z,99.99
2018-12-04T12:15:07.227Z,99.99
2018-12-04T12:16:07.224Z,99.99
2018-12-04T12:17:07.201Z,99.99
2018-12-04T12:18:07.177Z,99.99
2018-12-04T12:19:07.179Z,99.99
2018-12-04T12:20:07.209Z,99.99
2018-12-04T12:21:07.200Z,99.99
2018-12-04T12:22:07.185Z,99.99
2018-12-04T12:23:07.184Z,99.99
2018-12-04T12:24:07.478Z,99.99
2018-12-04T12:25:07.150Z,99.99
2018-12-04T12:26:07.172Z,99.99
2018-12-04T12:27:07.159Z,99.99
2018-12-04T12:28:07.170Z,99.99
2018-12-04T12:29:07.159Z,99.99
2018-12-04T12:30:07.169Z,99.99
2018-12-04T12:31:07.150Z,99.99
2018-12-04T12:32:07.135Z,99.99
2018-12-04T12:33:07.139Z,99.99
2018-12-04T12:34:07.143Z,99.99
2018-12-04T12:35:07.132Z,99.99
2018-12-04T12:36:07.119Z,99.99
2018-12-04T12:37:07.138Z,99.99
2018-12-04T12:38:07.133Z,99.99
2018-12-04T12:39:07.112Z,99.99
2018-12-04T12:40:07.103Z,99.99
2018-12-04T12:41:07.109Z,99.99
2018-12-04T12:42:07.113Z,95.33
2018-12-04T12:43:07.110Z,97.52
2018-12-04T12:44:07.097Z,97.81
2018-12-04T12:45:07.107Z,95.87
2018-12-04T12:46:07.104Z,96.74
2018-12-04T12:47:07.085Z,96.20
2018-12-04T12:48:07.091Z,94.74
2018-12-04T12:49:07.080Z,92.27
2018-12-04T12:50:07.071Z,90.61
2018-12-04T12:51:07.074Z,91.10
2018-12-04T12:52:07.058Z,91.58
2018-12-04T12:53:07.067Z,88.76
2018-12-04T12:54:07.077Z,86.67
2018-12-04T12:55:07.115Z,88.86